Olivehurst, California
Current Conditions -  °F | °C
As of 10:53 AM on Monday 22 Dec 2014 (Local Time) from KMYV Reporting Station
Overcast Overcast  
Wind Chill: 56°   Ceiling: 500
Heat Index: 56°   Visibility: 10mi
Dew Point: 54°   Wind: 9mph
Humidity: 93%   Direction: 310°NW
Pressure: 30.28"   Gusts: NA
Location:  39.1°N, 121.55°W
Report Text: KMYV 221853Z AUTO 31008KT 10SM OVC005 13/12 A3028 RMK AO2 SLP257 T01330122
Loading
Personal Weather Stations






























Interactive Weather Map New forecast layout! Learn more

10-Day Weather Forecast

Advertisements
Track Severe Weather on mobile